Lamoille, Nevada
Current Conditions -  °F | °C
As of 1:56 AM on Saturday 25 Oct 2014 (Local Time) from KEKO Reporting Station
Clear Clear  
Wind Chill: 61°   Ceiling: Unl
Heat Index: 61°   Visibility: 10mi
Dew Point: 25°   Wind: 0mph
Humidity: 25%   Direction: NA
Pressure: 30.05"   Gusts: NA
Location:  40.73°N, 115.48°W
Report Text: KEKO 250856Z AUTO 00000KT 10SM CLR 16/M04 A3005 RMK AO2 SLP123 T01611039 53002
Loading
Personal Weather Stations






























Interactive Weather Map
Tropical Storm Tracking
New forecast layout! Learn more

10-Day Weather Forecast

Advertisements
Track Severe Weather on mobile